createdAt,value
2023-05-09T00:00:50.808Z,47.72
2023-05-09T00:03:21.203Z,47.80
2023-05-09T00:05:51.274Z,47.08
2023-05-09T00:08:19.466Z,49.22
2023-05-09T00:10:47.957Z,51.65
2023-05-09T00:13:16.475Z,50.25
2023-05-09T00:15:47.887Z,51.65
2023-05-09T00:18:18.141Z,49.05
2023-05-09T00:20:46.380Z,49.28
2023-05-09T00:23:16.714Z,50.47
2023-05-09T00:25:45.284Z,52.75
2023-05-09T00:28:13.549Z,48.92
2023-05-09T00:30:41.688Z,50.50
2023-05-09T00:33:25.679Z,56.90
2023-05-09T00:35:53.997Z,50.83
2023-05-09T00:38:25.048Z,46.58
2023-05-09T00:40:53.343Z,46.92
2023-05-09T00:43:22.223Z,48.47
2023-05-09T00:45:51.312Z,45.85
2023-05-09T00:48:21.047Z,53.20
2023-05-09T00:50:52.904Z,49.20
2023-05-09T00:53:21.264Z,50.30
2023-05-09T00:55:51.197Z,49.13
2023-05-09T00:58:19.924Z,49.25
2023-05-09T01:00:48.727Z,47.25
2023-05-09T01:03:17.769Z,55.03
2023-05-09T01:05:58.007Z,57.20
2023-05-09T01:08:44.377Z,54.67
2023-05-09T01:11:19.311Z,60.08
2023-05-09T01:13:57.719Z,55.85
2023-05-09T01:16:33.700Z,60.20
2023-05-09T01:19:09.465Z,58.88
2023-05-09T01:21:41.591Z,56.83
2023-05-09T01:24:50.149Z,55.78
2023-05-09T01:27:38.651Z,58.72
2023-05-09T01:30:11.729Z,55.08
2023-05-09T01:32:44.198Z,55.42
2023-05-09T01:35:15.997Z,53.42
2023-05-09T01:37:48.205Z,51.97
2023-05-09T01:40:20.180Z,50.15
2023-05-09T01:42:52.404Z,46.95
2023-05-09T01:45:23.174Z,48.53
2023-05-09T01:47:52.086Z,44.13
2023-05-09T01:50:21.262Z,45.85
2023-05-09T01:52:50.919Z,47.17
2023-05-09T01:55:21.186Z,45.30
2023-05-09T01:57:51.882Z,44.33
2023-05-09T02:00:22.522Z,44.08
2023-05-09T02:02:51.354Z,44.67
2023-05-09T02:05:20.545Z,45.47
2023-05-09T02:07:49.775Z,44.42
2023-05-09T02:10:18.529Z,48.28
2023-05-09T02:12:46.775Z,44.22
2023-05-09T02:15:15.524Z,43.58
2023-05-09T02:17:45.700Z,42.20
2023-05-09T02:20:14.642Z,47.40
2023-05-09T02:22:44.680Z,47.30
2023-05-09T02:25:15.863Z,43.00
2023-05-09T02:27:46.682Z,40.92
2023-05-09T02:30:20.675Z,39.58
2023-05-09T02:32:51.903Z,41.65
2023-05-09T02:35:21.700Z,38.72
2023-05-09T02:37:50.558Z,39.53
2023-05-09T02:40:20.485Z,37.38
2023-05-09T02:42:50.838Z,42.92
2023-05-09T02:45:21.779Z,38.20
2023-05-09T02:47:51.444Z,38.83
2023-05-09T02:50:19.976Z,38.92
2023-05-09T02:52:48.166Z,41.90
2023-05-09T02:55:16.492Z,35.90
2023-05-09T02:57:44.999Z,35.50
2023-05-09T03:00:14.425Z,38.85
2023-05-09T03:02:43.148Z,35.83
2023-05-09T03:05:13.069Z,37.92
2023-05-09T03:07:41.772Z,36.90
2023-05-09T03:10:12.264Z,37.67
2023-05-09T03:12:40.464Z,41.10
2023-05-09T03:15:09.787Z,39.33
2023-05-09T03:17:38.290Z,45.22
2023-05-09T03:20:10.584Z,44.42
2023-05-09T03:22:40.297Z,41.67
2023-05-09T03:25:09.610Z,43.00
2023-05-09T03:27:37.864Z,40.60
2023-05-09T03:30:07.073Z,39.55
2023-05-09T03:32:35.273Z,38.58
2023-05-09T03:35:03.922Z,40.53
2023-05-09T03:37:32.241Z,43.60
2023-05-09T03:40:01.961Z,43.80
2023-05-09T03:42:31.072Z,41.03
2023-05-09T03:45:01.344Z,41.92
2023-05-09T03:47:32.220Z,42.25
2023-05-09T03:50:06.612Z,43.30
2023-05-09T03:52:37.429Z,37.67
2023-05-09T03:55:10.049Z,44.60
2023-05-09T03:57:38.609Z,39.75
2023-05-09T04:00:13.105Z,40.42
2023-05-09T04:02:47.116Z,39.40
2023-05-09T04:05:15.515Z,36.30
2023-05-09T04:07:43.969Z,36.58
2023-05-09T04:10:13.905Z,34.45
2023-05-09T04:12:42.381Z,35.70
2023-05-09T04:15:12.294Z,31.33
2023-05-09T04:17:40.674Z,33.20
2023-05-09T04:20:11.739Z,36.58
2023-05-09T04:22:39.788Z,37.95
2023-05-09T04:25:12.512Z,37.35
2023-05-09T04:27:42.091Z,40.08
2023-05-09T04:30:13.202Z,36.63
2023-05-09T04:32:45.619Z,35.67
2023-05-09T04:35:14.268Z,37.90
2023-05-09T04:37:42.863Z,43.83
2023-05-09T04:40:14.656Z,37.85
2023-05-09T04:42:44.011Z,35.63
2023-05-09T04:45:13.057Z,36.95
2023-05-09T04:47:41.410Z,41.60
2023-05-09T04:50:10.381Z,40.22
2023-05-09T04:52:41.097Z,33.72
2023-05-09T04:55:11.624Z,39.60
2023-05-09T04:57:39.792Z,34.65
2023-05-09T05:00:11.489Z,35.95
2023-05-09T05:02:39.860Z,33.67
2023-05-09T05:05:17.632Z,35.08
2023-05-09T05:07:45.853Z,33.22
2023-05-09T05:10:14.512Z,32.72
2023-05-09T05:12:42.490Z,32.72
2023-05-09T05:15:13.702Z,33.25
2023-05-09T05:17:43.186Z,33.83
2023-05-09T05:20:11.686Z,32.75
2023-05-09T05:22:39.775Z,35.33
2023-05-09T05:25:09.058Z,34.10
2023-05-09T05:27:37.120Z,33.55
2023-05-09T05:30:05.780Z,31.33
2023-05-09T05:32:36.187Z,37.65
2023-05-09T05:35:04.990Z,37.42
2023-05-09T05:37:33.034Z,40.85
2023-05-09T05:40:01.209Z,35.60
2023-05-09T05:42:29.190Z,37.25
2023-05-09T05:44:57.199Z,35.95
2023-05-09T05:47:25.266Z,35.50
2023-05-09T05:49:55.045Z,35.17
2023-05-09T05:52:23.043Z,37.45
2023-05-09T05:54:51.185Z,35.78
2023-05-09T05:57:19.121Z,33.08
2023-05-09T05:59:48.832Z,36.78
2023-05-09T06:02:17.116Z,34.60
2023-05-09T06:04:45.304Z,38.15
2023-05-09T06:07:15.020Z,38.15
2023-05-09T06:09:43.055Z,31.10
2023-05-09T06:12:11.894Z,34.50
2023-05-09T06:14:39.899Z,32.50
2023-05-09T06:17:08.006Z,31.48
2023-05-09T06:19:37.149Z,32.28
2023-05-09T06:22:05.140Z,29.95
2023-05-09T06:24:36.177Z,30.10
2023-05-09T06:27:05.309Z,26.50
2023-05-09T06:29:33.379Z,29.15
2023-05-09T06:32:02.776Z,25.13
2023-05-09T06:34:30.762Z,25.48
2023-05-09T06:36:58.693Z,24.95
2023-05-09T06:39:26.746Z,27.33
2023-05-09T06:41:56.022Z,23.88
2023-05-09T06:44:23.950Z,21.73
2023-05-09T06:46:52.100Z,25.15
2023-05-09T06:49:20.084Z,19.63
2023-05-09T06:51:48.230Z,20.90
2023-05-09T06:54:17.193Z,18.45
2023-05-09T06:56:45.252Z,19.25
2023-05-09T06:59:16.561Z,17.77
2023-05-09T07:01:44.636Z,17.40
2023-05-09T07:04:12.719Z,17.80
2023-05-09T07:06:40.806Z,18.25
2023-05-09T07:09:09.009Z,20.02
2023-05-09T07:11:37.414Z,20.75
2023-05-09T07:14:05.454Z,24.23
2023-05-09T07:16:37.562Z,24.08
2023-05-09T07:19:06.244Z,23.02
2023-05-09T07:21:34.955Z,23.48
2023-05-09T07:24:03.588Z,28.05
2023-05-09T07:26:31.661Z,23.63
2023-05-09T07:28:59.725Z,25.27
2023-05-09T07:31:27.755Z,27.25
2023-05-09T07:33:57.188Z,24.40
2023-05-09T07:36:25.341Z,27.17
2023-05-09T07:38:54.600Z,25.83
2023-05-09T07:41:25.051Z,26.05
2023-05-09T07:43:53.184Z,26.75
2023-05-09T07:46:21.353Z,24.45
2023-05-09T07:48:51.072Z,30.02
2023-05-09T07:51:20.744Z,25.83
2023-05-09T07:53:48.962Z,24.95
2023-05-09T07:56:16.970Z,21.00
2023-05-09T07:58:44.942Z,22.75
2023-05-09T08:01:12.931Z,24.60
2023-05-09T08:03:41.526Z,21.33
2023-05-09T08:06:10.795Z,25.83
2023-05-09T08:08:40.150Z,26.48
2023-05-09T08:11:08.190Z,19.83
2023-05-09T08:13:36.253Z,24.15
2023-05-09T08:16:11.134Z,24.17
2023-05-09T08:18:39.251Z,24.40
2023-05-09T08:21:07.373Z,26.90
2023-05-09T08:23:35.605Z,26.17
2023-05-09T08:26:05.163Z,27.67
2023-05-09T08:28:33.170Z,26.45
2023-05-09T08:31:01.258Z,24.60
2023-05-09T08:33:29.265Z,30.20
2023-05-09T08:35:57.413Z,30.92
2023-05-09T08:38:25.431Z,25.63
2023-05-09T08:40:53.530Z,26.63
2023-05-09T08:43:25.103Z,26.95
2023-05-09T08:45:58.065Z,29.60
2023-05-09T08:48:26.820Z,26.73
2023-05-09T08:50:55.950Z,26.67
2023-05-09T08:53:24.388Z,25.35
2023-05-09T08:55:53.726Z,26.17
2023-05-09T08:58:23.612Z,27.45
2023-05-09T09:00:51.793Z,29.63
2023-05-09T09:03:19.930Z,27.38
2023-05-09T09:05:49.373Z,25.45
2023-05-09T09:08:19.069Z,27.15
2023-05-09T09:10:48.367Z,24.25
2023-05-09T09:13:19.712Z,21.80
2023-05-09T09:15:49.856Z,18.88
2023-05-09T09:18:23.098Z,22.85
2023-05-09T09:20:57.974Z,20.65
2023-05-09T09:23:27.746Z,18.60
2023-05-09T09:26:00.250Z,18.55
2023-05-09T09:28:28.472Z,21.27
2023-05-09T09:30:57.909Z,15.80
2023-05-09T09:33:27.590Z,15.43
2023-05-09T09:35:57.329Z,14.10
2023-05-09T09:38:26.791Z,17.15
2023-05-09T09:40:56.054Z,15.30
2023-05-09T09:43:28.940Z,12.93
2023-05-09T09:45:58.773Z,15.05
2023-05-09T09:48:27.098Z,13.10
2023-05-09T09:50:56.683Z,12.90
2023-05-09T09:53:30.146Z,13.40
2023-05-09T09:55:58.598Z,14.00
2023-05-09T09:58:27.017Z,13.45
2023-05-09T10:01:10.220Z,11.25
2023-05-09T10:03:39.265Z,13.38
2023-05-09T10:06:11.607Z,12.15
2023-05-09T10:08:39.596Z,11.95
2023-05-09T10:11:08.036Z,11.45
2023-05-09T10:13:37.384Z,11.25
2023-05-09T10:16:07.025Z,9.02
2023-05-09T10:18:37.392Z,11.05
2023-05-09T10:21:09.005Z,10.68
2023-05-09T10:23:39.497Z,9.73
2023-05-09T10:26:21.000Z,10.68
2023-05-09T10:28:50.860Z,9.07
2023-05-09T10:31:26.832Z,9.40
2023-05-09T10:33:57.682Z,9.07
2023-05-09T10:36:25.927Z,10.45
2023-05-09T10:38:56.318Z,10.00
2023-05-09T10:41:25.635Z,10.25
2023-05-09T10:43:56.517Z,7.80
2023-05-09T10:46:25.335Z,7.70
2023-05-09T10:48:53.536Z,7.72
2023-05-09T10:51:24.195Z,7.57
2023-05-09T10:53:52.453Z,6.60
2023-05-09T10:56:29.835Z,7.38
2023-05-09T10:58:58.035Z,10.07
2023-05-09T11:01:36.057Z,6.32
2023-05-09T11:04:11.393Z,7.80
2023-05-09T11:06:49.957Z,3.50
2023-05-09T11:09:27.214Z,3.53
2023-05-09T11:11:56.917Z,4.38
2023-05-09T11:14:39.114Z,3.90
2023-05-09T11:17:10.929Z,4.43
2023-05-09T11:19:54.944Z,3.80
2023-05-09T11:22:26.319Z,3.58
2023-05-09T11:25:01.554Z,5.22
2023-05-09T11:27:30.540Z,4.47
2023-05-09T11:29:59.912Z,3.22
2023-05-09T11:32:31.918Z,3.22
2023-05-09T11:35:10.537Z,2.95
2023-05-09T11:37:48.219Z,4.60
2023-05-09T11:40:18.309Z,4.97
2023-05-09T11:42:47.822Z,4.13
2023-05-09T11:45:16.281Z,3.28
2023-05-09T11:47:44.486Z,5.63
2023-05-09T11:50:14.339Z,4.15
2023-05-09T11:52:43.874Z,4.45
2023-05-09T11:55:14.578Z,4.95
2023-05-09T11:57:44.172Z,2.67
2023-05-09T12:00:13.215Z,4.47
2023-05-09T12:02:41.511Z,3.22
2023-05-09T12:05:10.990Z,2.90
2023-05-09T12:07:39.888Z,4.90
2023-05-09T12:10:11.231Z,2.65
2023-05-09T12:12:44.075Z,2.40
2023-05-09T12:15:13.981Z,2.35
2023-05-09T12:17:43.505Z,2.80
2023-05-09T12:20:12.388Z,2.55
2023-05-09T12:22:44.124Z,3.13
2023-05-09T12:25:14.288Z,3.03
2023-05-09T12:27:43.181Z,3.28
2023-05-09T12:30:15.956Z,4.15
2023-05-09T12:32:44.404Z,2.40
2023-05-09T12:35:12.622Z,4.55
2023-05-09T12:37:40.666Z,2.80
2023-05-09T12:40:12.802Z,3.83
2023-05-09T12:42:46.265Z,2.22
2023-05-09T12:45:15.698Z,3.00
2023-05-09T12:47:45.447Z,2.25
2023-05-09T12:50:14.030Z,3.08
2023-05-09T12:53:02.095Z,3.45
2023-05-09T12:55:32.844Z,6.43
2023-05-09T12:58:04.223Z,3.13
2023-05-09T13:00:43.398Z,3.25
2023-05-09T13:03:22.725Z,2.38
2023-05-09T13:05:58.593Z,4.97
2023-05-09T13:08:26.915Z,3.95
2023-05-09T13:11:04.006Z,5.10
2023-05-09T13:13:45.117Z,4.97
2023-05-09T13:16:15.719Z,2.17
2023-05-09T13:18:45.482Z,2.97
2023-05-09T13:21:13.487Z,2.25
2023-05-09T13:23:42.192Z,2.45
2023-05-09T13:26:10.249Z,2.42
2023-05-09T13:28:38.174Z,2.72
2023-05-09T13:31:08.176Z,2.45
2023-05-09T13:33:36.258Z,7.82
2023-05-09T13:36:04.691Z,2.55
2023-05-09T13:38:36.648Z,2.55
2023-05-09T13:41:04.722Z,3.00
2023-05-09T13:43:32.755Z,2.53
2023-05-09T13:46:00.747Z,2.83
2023-05-09T13:48:30.397Z,3.13
2023-05-09T13:50:59.852Z,3.78
2023-05-09T13:53:27.946Z,2.17
2023-05-09T13:55:56.097Z,3.85
2023-05-09T13:58:24.109Z,4.70
2023-05-09T14:00:52.187Z,4.68
2023-05-09T14:03:20.168Z,3.03
2023-05-09T14:05:49.648Z,4.38
2023-05-09T14:08:17.929Z,4.45
2023-05-09T14:10:45.908Z,4.15
2023-05-09T14:13:15.672Z,2.85
2023-05-09T14:15:43.908Z,4.15
2023-05-09T14:18:17.723Z,4.53
2023-05-09T14:20:47.390Z,3.03
2023-05-09T14:23:17.073Z,3.70
2023-05-09T14:25:45.262Z,3.30
2023-05-09T14:28:13.408Z,4.70
2023-05-09T14:30:41.852Z,3.53
2023-05-09T14:33:09.894Z,3.97
2023-05-09T14:35:41.106Z,5.72
2023-05-09T14:38:09.559Z,2.83
2023-05-09T14:40:38.990Z,3.13
2023-05-09T14:43:07.358Z,4.32
2023-05-09T14:45:35.329Z,4.03
2023-05-09T14:48:04.232Z,3.00
2023-05-09T14:50:33.470Z,2.92
2023-05-09T14:53:02.066Z,2.47
2023-05-09T14:55:31.172Z,2.67
2023-05-09T14:58:00.604Z,4.25
2023-05-09T15:00:29.274Z,3.67
2023-05-09T15:02:57.992Z,4.03
2023-05-09T15:05:26.153Z,3.35
2023-05-09T15:07:54.464Z,4.28
2023-05-09T15:10:22.660Z,3.60
2023-05-09T15:12:50.747Z,3.55
2023-05-09T15:15:21.590Z,2.35
2023-05-09T15:17:49.905Z,2.33
2023-05-09T15:20:18.616Z,2.55
2023-05-09T15:22:47.625Z,3.88
2023-05-09T15:25:15.754Z,3.10
2023-05-09T15:27:43.865Z,2.67
2023-05-09T15:30:12.794Z,3.92
2023-05-09T15:32:42.303Z,2.45
2023-05-09T15:35:10.642Z,5.10
2023-05-09T15:37:38.621Z,3.13
2023-05-09T15:40:07.952Z,4.80
2023-05-09T15:42:36.063Z,2.20
2023-05-09T15:45:04.346Z,5.93
2023-05-09T15:47:32.412Z,5.95
2023-05-09T15:50:01.855Z,2.17
2023-05-09T15:52:29.885Z,3.13
2023-05-09T15:54:58.111Z,3.13
2023-05-09T15:57:26.369Z,3.55
2023-05-09T15:59:56.125Z,2.92
2023-05-09T16:02:24.761Z,3.55
2023-05-09T16:04:52.840Z,3.58
2023-05-09T16:07:22.354Z,2.13
2023-05-09T16:09:50.443Z,4.93
2023-05-09T16:12:18.436Z,3.55
2023-05-09T16:14:46.426Z,3.50
2023-05-09T16:17:14.385Z,2.75
2023-05-09T16:19:42.461Z,2.45
2023-05-09T16:22:10.778Z,1.90
2023-05-09T16:24:40.049Z,5.45
2023-05-09T16:27:08.249Z,2.10
2023-05-09T16:29:36.454Z,2.10
2023-05-09T16:32:04.486Z,4.45
2023-05-09T16:34:32.890Z,3.67
2023-05-09T16:37:00.915Z,2.90
2023-05-09T16:39:29.006Z,2.45
2023-05-09T16:41:59.633Z,2.47
2023-05-09T16:44:27.910Z,4.45
2023-05-09T16:46:55.926Z,2.03
2023-05-09T16:49:24.051Z,2.75
2023-05-09T16:51:52.017Z,2.42
2023-05-09T16:54:19.982Z,12.60
2023-05-09T16:56:47.937Z,19.67
2023-05-09T16:59:18.717Z,16.38
2023-05-09T17:01:47.574Z,3.80
2023-05-09T17:04:18.723Z,3.47
2023-05-09T17:06:46.752Z,4.35
2023-05-09T17:09:14.710Z,7.88
2023-05-09T17:11:42.759Z,6.78
2023-05-09T17:14:11.273Z,6.20
2023-05-09T17:16:41.223Z,10.32
2023-05-09T17:19:09.244Z,12.13
2023-05-09T17:21:38.191Z,9.30
2023-05-09T17:24:06.795Z,9.68
2023-05-09T17:26:35.014Z,11.70
2023-05-09T17:29:03.688Z,12.48
2023-05-09T17:31:32.142Z,11.68
2023-05-09T17:34:01.524Z,10.63
2023-05-09T17:36:29.827Z,5.95
2023-05-09T17:38:57.864Z,8.73
2023-05-09T17:41:25.846Z,5.65
2023-05-09T17:43:56.383Z,4.90
2023-05-09T17:46:24.545Z,5.45
2023-05-09T17:48:52.662Z,4.18
2023-05-09T17:51:22.241Z,5.22
2023-05-09T17:53:50.306Z,5.70
2023-05-09T17:56:18.307Z,8.27
2023-05-09T17:58:46.366Z,8.20
2023-05-09T18:01:15.633Z,6.43
2023-05-09T18:03:43.807Z,8.65
2023-05-09T18:06:11.940Z,7.15
2023-05-09T18:08:41.459Z,10.68
2023-05-09T18:11:09.470Z,9.10
2023-05-09T18:13:37.543Z,7.07
2023-05-09T18:16:06.054Z,6.72
2023-05-09T18:18:35.572Z,6.07
2023-05-09T18:21:04.902Z,6.85
2023-05-09T18:23:33.245Z,11.95
2023-05-09T18:26:02.783Z,7.15
2023-05-09T18:28:31.863Z,7.00
2023-05-09T18:31:01.370Z,8.77
2023-05-09T18:33:30.187Z,7.93
2023-05-09T18:35:58.170Z,8.23
2023-05-09T18:38:26.283Z,5.95
2023-05-09T18:40:54.284Z,5.90
2023-05-09T18:43:23.628Z,6.15
2023-05-09T18:45:51.987Z,7.40
2023-05-09T18:48:20.101Z,4.28
2023-05-09T18:50:48.873Z,5.55
2023-05-09T18:53:16.831Z,5.47
2023-05-09T18:55:44.915Z,7.43
2023-05-09T18:58:13.760Z,5.97
2023-05-09T19:00:44.544Z,5.57
2023-05-09T19:03:12.549Z,5.82
2023-05-09T19:05:40.585Z,5.60
2023-05-09T19:08:08.579Z,14.25
2023-05-09T19:10:38.006Z,7.40
2023-05-09T19:13:06.148Z,7.43
2023-05-09T19:15:34.791Z,6.93
2023-05-09T19:18:04.785Z,6.30
2023-05-09T19:20:33.042Z,4.07
2023-05-09T19:23:01.690Z,4.45
2023-05-09T19:25:30.475Z,3.92
2023-05-09T19:27:58.533Z,3.65
2023-05-09T19:30:26.607Z,5.18
2023-05-09T19:32:54.892Z,4.07
2023-05-09T19:35:24.645Z,3.92
2023-05-09T19:37:52.597Z,4.90
2023-05-09T19:40:20.829Z,5.53
2023-05-09T19:42:51.787Z,4.65
2023-05-09T19:45:20.181Z,4.05
2023-05-09T19:47:48.528Z,7.03
2023-05-09T19:50:16.901Z,5.07
2023-05-09T19:52:46.614Z,5.85
2023-05-09T19:55:14.986Z,4.57
2023-05-09T19:57:42.993Z,5.78
2023-05-09T20:00:12.011Z,4.90
2023-05-09T20:02:41.000Z,3.40
2023-05-09T20:05:09.884Z,3.97
2023-05-09T20:07:38.081Z,2.90
2023-05-09T20:10:08.381Z,3.05
2023-05-09T20:12:36.417Z,3.63
2023-05-09T20:15:05.538Z,3.83
2023-05-09T20:17:33.469Z,3.33
2023-05-09T20:20:01.606Z,5.28
2023-05-09T20:22:29.652Z,2.90
2023-05-09T20:24:57.765Z,3.17
2023-05-09T20:27:27.381Z,2.75
2023-05-09T20:29:55.367Z,2.17
2023-05-09T20:32:23.810Z,2.03
2023-05-09T20:34:51.828Z,2.25
2023-05-09T20:37:19.892Z,2.08
2023-05-09T20:39:47.929Z,1.90
2023-05-09T20:42:15.991Z,2.17
2023-05-09T20:44:45.352Z,1.80
2023-05-09T20:47:13.383Z,2.70
2023-05-09T20:49:41.413Z,2.42
2023-05-09T20:52:09.395Z,2.33
2023-05-09T20:54:37.653Z,2.10
2023-05-09T20:57:05.684Z,2.78
2023-05-09T20:59:33.612Z,2.35
2023-05-09T21:02:03.046Z,2.55
2023-05-09T21:04:31.187Z,1.88
2023-05-09T21:06:59.872Z,3.13
2023-05-09T21:09:27.914Z,2.45
2023-05-09T21:11:55.874Z,2.58
2023-05-09T21:14:23.896Z,1.80
2023-05-09T21:16:54.851Z,2.92
2023-05-09T21:19:24.340Z,2.92
2023-05-09T21:21:52.311Z,2.97
2023-05-09T21:24:20.346Z,3.28
2023-05-09T21:26:48.292Z,4.15
2023-05-09T21:29:16.351Z,2.40
2023-05-09T21:31:44.414Z,2.13
2023-05-09T21:34:12.424Z,1.45
2023-05-09T21:36:41.997Z,1.55
2023-05-09T21:39:10.394Z,3.13
2023-05-09T21:41:39.512Z,2.33
2023-05-09T21:44:08.391Z,3.35
2023-05-09T21:46:36.688Z,3.40
2023-05-09T21:49:05.078Z,2.88
2023-05-09T21:51:33.514Z,2.58
2023-05-09T21:54:02.890Z,5.43
2023-05-09T21:56:31.015Z,2.40
2023-05-09T21:58:58.906Z,3.03
2023-05-09T22:01:26.936Z,2.40
2023-05-09T22:04:01.605Z,2.28
2023-05-09T22:06:29.682Z,2.33
2023-05-09T22:08:57.599Z,2.13
2023-05-09T22:11:26.950Z,1.48
2023-05-09T22:13:55.346Z,2.03
2023-05-09T22:16:23.374Z,1.80
2023-05-09T22:18:51.430Z,5.07
2023-05-09T22:21:25.195Z,2.15
2023-05-09T22:23:53.288Z,2.17
2023-05-09T22:26:21.288Z,1.20
2023-05-09T22:28:51.016Z,3.38
2023-05-09T22:31:19.071Z,1.77
2023-05-09T22:33:47.131Z,0.77
2023-05-09T22:36:17.541Z,1.58
2023-05-09T22:38:45.568Z,1.38
2023-05-09T22:41:13.572Z,1.20
2023-05-09T22:43:41.526Z,2.70
2023-05-09T22:46:10.910Z,0.95
2023-05-09T22:48:38.817Z,2.22
2023-05-09T22:51:06.793Z,0.60
2023-05-09T22:53:34.734Z,2.45
2023-05-09T22:56:02.757Z,2.05
2023-05-09T22:58:30.756Z,2.10
2023-05-09T23:00:58.675Z,0.63
2023-05-09T23:03:28.163Z,0.75
2023-05-09T23:05:56.139Z,0.60
2023-05-09T23:08:24.184Z,1.08
2023-05-09T23:10:52.498Z,1.92
2023-05-09T23:13:21.111Z,0.60
2023-05-09T23:15:49.216Z,0.52
2023-05-09T23:18:17.180Z,0.55
2023-05-09T23:20:47.325Z,0.60
2023-05-09T23:23:15.440Z,0.80
2023-05-09T23:25:44.353Z,1.00
2023-05-09T23:28:12.275Z,0.60
2023-05-09T23:30:40.296Z,0.68
2023-05-09T23:33:08.216Z,2.47
2023-05-09T23:35:36.194Z,0.90
2023-05-09T23:38:05.440Z,0.88
2023-05-09T23:40:33.460Z,0.50
2023-05-09T23:43:01.369Z,0.60
2023-05-09T23:45:29.390Z,2.05
2023-05-09T23:47:58.130Z,0.55
2023-05-09T23:50:26.139Z,0.40
2023-05-09T23:52:54.083Z,0.82
2023-05-09T23:55:23.374Z,0.50
2023-05-09T23:57:51.375Z,0.55
